createdAt,value
2023-04-28T00:01:44.676Z,2.90
2023-04-28T00:04:11.898Z,2.90
2023-04-28T00:06:38.985Z,2.90
2023-04-28T00:09:05.855Z,2.90
2023-04-28T00:11:32.702Z,2.80
2023-04-28T00:13:59.448Z,2.80
2023-04-28T00:16:26.234Z,2.80
2023-04-28T00:18:53.061Z,2.80
2023-04-28T00:21:19.756Z,2.80
2023-04-28T00:23:46.502Z,2.80
2023-04-28T00:26:13.230Z,2.80
2023-04-28T00:28:40.051Z,2.90
2023-04-28T00:31:14.762Z,2.70
2023-04-28T00:33:42.383Z,2.70
2023-04-28T00:36:09.775Z,2.80
2023-04-28T00:38:36.883Z,2.70
2023-04-28T00:41:05.073Z,2.70
2023-04-28T00:43:32.222Z,2.70
2023-04-28T00:45:59.416Z,2.70
2023-04-28T00:48:26.446Z,2.80
2023-04-28T00:50:53.241Z,2.70
2023-04-28T00:53:20.179Z,2.80
2023-04-28T00:55:48.109Z,2.90
2023-04-28T00:58:15.056Z,3.00
2023-04-28T01:00:43.164Z,3.00
2023-04-28T01:03:10.909Z,2.90
2023-04-28T01:05:38.092Z,2.90
2023-04-28T01:08:04.932Z,3.00
2023-04-28T01:10:31.630Z,3.00
2023-04-28T01:12:59.758Z,3.00
2023-04-28T01:15:28.392Z,3.00
2023-04-28T01:17:55.752Z,3.00
2023-04-28T01:20:23.658Z,2.90
2023-04-28T01:22:50.362Z,2.80
2023-04-28T01:25:17.194Z,2.80
2023-04-28T01:27:43.880Z,2.70
2023-04-28T01:30:10.988Z,2.80
2023-04-28T01:32:37.743Z,2.80
2023-04-28T01:35:04.957Z,2.80
2023-04-28T01:37:31.722Z,2.80
2023-04-28T01:39:58.446Z,2.90
2023-04-28T01:42:25.379Z,3.00
2023-04-28T01:44:52.108Z,2.90
2023-04-28T01:47:18.939Z,2.80
2023-04-28T01:49:48.022Z,2.80
2023-04-28T01:52:15.228Z,3.00
2023-04-28T01:54:41.942Z,2.90
2023-04-28T01:57:08.800Z,2.90
2023-04-28T01:59:35.751Z,2.80
2023-04-28T02:02:09.400Z,2.80
2023-04-28T02:04:38.223Z,2.80
2023-04-28T02:07:06.201Z,2.70
2023-04-28T02:09:33.923Z,2.70
2023-04-28T02:12:02.264Z,2.70
2023-04-28T02:14:29.907Z,2.80
2023-04-28T02:16:56.602Z,2.90
2023-04-28T02:19:23.302Z,2.90
2023-04-28T02:21:50.349Z,2.90
2023-04-28T02:24:17.211Z,2.90
2023-04-28T02:26:44.160Z,2.80
2023-04-28T02:29:11.070Z,2.80
2023-04-28T02:31:38.125Z,2.90
2023-04-28T02:34:04.919Z,2.80
2023-04-28T02:36:32.881Z,2.80
2023-04-28T02:38:59.609Z,2.80
2023-04-28T02:41:26.968Z,2.80
2023-04-28T02:43:53.857Z,2.70
2023-04-28T02:46:20.775Z,2.80
2023-04-28T02:48:47.523Z,2.70
2023-04-28T02:51:14.465Z,2.70
2023-04-28T02:53:41.250Z,2.90
2023-04-28T02:56:08.041Z,2.90
2023-04-28T02:58:34.767Z,2.80
2023-04-28T03:01:01.646Z,2.80
2023-04-28T03:03:28.631Z,2.70
2023-04-28T03:05:56.964Z,2.80
2023-04-28T03:08:24.169Z,2.80
2023-04-28T03:10:50.993Z,2.70
2023-04-28T03:13:17.732Z,2.60
2023-04-28T03:15:44.668Z,2.60
2023-04-28T03:18:11.404Z,2.60
2023-04-28T03:20:38.070Z,2.70
2023-04-28T03:23:04.819Z,2.70
2023-04-28T03:25:31.602Z,2.70
2023-04-28T03:27:58.303Z,2.70
2023-04-28T03:30:24.996Z,2.70
2023-04-28T03:32:51.732Z,2.60
2023-04-28T03:35:18.553Z,2.60
2023-04-28T03:37:45.307Z,2.60
2023-04-28T03:40:12.440Z,2.60
2023-04-28T03:42:39.269Z,2.60
2023-04-28T03:45:06.446Z,2.60
2023-04-28T03:47:33.585Z,2.60
2023-04-28T03:50:00.420Z,2.60
2023-04-28T03:52:27.580Z,2.60
2023-04-28T03:54:54.379Z,2.80
2023-04-28T03:57:21.105Z,2.70
2023-04-28T03:59:47.798Z,2.70
2023-04-28T04:02:14.635Z,2.70
2023-04-28T04:04:41.553Z,2.70
2023-04-28T04:07:08.392Z,2.70
2023-04-28T04:09:35.132Z,2.60
2023-04-28T04:12:01.887Z,2.70
2023-04-28T04:14:28.559Z,2.60
2023-04-28T04:16:55.713Z,2.70
2023-04-28T04:19:24.065Z,2.70
2023-04-28T04:21:50.873Z,2.80
2023-04-28T04:24:17.946Z,2.90
2023-04-28T04:26:44.808Z,3.00
2023-04-28T04:29:11.527Z,3.00
2023-04-28T04:31:38.381Z,3.10
2023-04-28T04:34:05.301Z,3.10
2023-04-28T04:36:35.303Z,3.30
2023-04-28T04:39:04.969Z,3.40
2023-04-28T04:41:34.239Z,3.40
2023-04-28T04:44:01.034Z,3.40
2023-04-28T04:46:27.928Z,3.40
2023-04-28T04:48:54.616Z,3.40
2023-04-28T04:51:21.832Z,3.40
2023-04-28T04:53:51.059Z,3.50
2023-04-28T04:56:17.948Z,3.60
2023-04-28T04:58:44.765Z,3.80
2023-04-28T05:01:11.547Z,3.90
2023-04-28T05:03:38.378Z,3.90
2023-04-28T05:06:05.285Z,4.00
2023-04-28T05:08:32.082Z,4.00
2023-04-28T05:10:58.839Z,4.10
2023-04-28T05:13:25.785Z,4.20
2023-04-28T05:15:52.480Z,4.30
2023-04-28T05:18:19.211Z,4.40
2023-04-28T05:20:46.123Z,4.30
2023-04-28T05:23:13.044Z,4.50
2023-04-28T05:25:39.868Z,4.60
2023-04-28T05:28:09.908Z,4.70
2023-04-28T05:30:36.664Z,4.90
2023-04-28T05:33:03.467Z,4.90
2023-04-28T05:35:31.756Z,5.00
2023-04-28T05:37:59.217Z,5.20
2023-04-28T05:40:26.887Z,5.30
2023-04-28T05:42:53.826Z,5.40
2023-04-28T05:45:20.666Z,5.50
2023-04-28T05:47:47.867Z,5.70
2023-04-28T05:50:14.782Z,5.80
2023-04-28T05:52:41.514Z,6.00
2023-04-28T05:55:10.300Z,6.10
2023-04-28T05:57:49.324Z,6.20
2023-04-28T06:00:19.808Z,6.30
2023-04-28T06:02:46.843Z,6.40
2023-04-28T06:05:13.877Z,6.50
2023-04-28T06:07:41.162Z,6.60
2023-04-28T06:10:08.313Z,6.70
2023-04-28T06:12:35.044Z,6.80
2023-04-28T06:15:02.101Z,6.90
2023-04-28T06:17:46.223Z,7.00
2023-04-28T06:20:27.617Z,7.10
2023-04-28T06:22:57.570Z,7.20
2023-04-28T06:25:33.317Z,7.40
2023-04-28T06:28:00.348Z,7.50
2023-04-28T06:30:28.598Z,7.60
2023-04-28T06:32:59.182Z,7.80
2023-04-28T06:35:39.138Z,7.90
2023-04-28T06:38:14.662Z,7.90
2023-04-28T06:40:41.677Z,8.00
2023-04-28T06:43:11.152Z,8.20
2023-04-28T06:45:38.399Z,8.30
2023-04-28T06:48:08.649Z,8.40
2023-04-28T06:50:54.434Z,8.40
2023-04-28T06:53:28.213Z,8.40
2023-04-28T06:55:56.756Z,8.50
2023-04-28T06:58:32.657Z,8.60
2023-04-28T07:01:10.016Z,8.60
2023-04-28T07:03:59.190Z,8.70
2023-04-28T07:06:39.350Z,8.70
2023-04-28T07:09:08.213Z,8.80
2023-04-28T07:11:36.416Z,9.00
2023-04-28T07:14:03.179Z,9.00
2023-04-28T07:16:29.978Z,9.00
2023-04-28T07:18:57.114Z,9.10
2023-04-28T07:21:23.901Z,9.20
2023-04-28T07:23:53.812Z,9.40
2023-04-28T07:26:20.892Z,9.50
2023-04-28T07:29:08.438Z,9.50
2023-04-28T07:31:44.424Z,9.60
2023-04-28T07:34:18.854Z,9.60
2023-04-28T07:37:10.982Z,9.60
2023-04-28T07:39:49.138Z,9.70
2023-04-28T07:42:26.894Z,9.90
2023-04-28T07:44:59.359Z,10.00
2023-04-28T07:47:36.919Z,10.10
2023-04-28T07:50:12.815Z,10.10
2023-04-28T07:52:40.063Z,10.30
2023-04-28T07:55:07.200Z,10.30
2023-04-28T07:57:39.750Z,10.40
2023-04-28T08:00:08.467Z,10.50
2023-04-28T08:02:35.567Z,10.60
2023-04-28T08:05:02.794Z,10.60
2023-04-28T08:07:29.730Z,10.70
2023-04-28T08:09:57.370Z,10.90
2023-04-28T08:12:24.231Z,10.90
2023-04-28T08:14:53.039Z,10.90
2023-04-28T08:17:19.958Z,10.90
2023-04-28T08:19:47.551Z,10.80
2023-04-28T08:22:14.242Z,10.70
2023-04-28T08:24:41.507Z,10.80
2023-04-28T08:27:08.355Z,10.80
2023-04-28T08:29:35.178Z,11.00
2023-04-28T08:32:02.266Z,11.00
2023-04-28T08:34:29.504Z,11.20
2023-04-28T08:36:56.236Z,11.20
2023-04-28T08:39:23.854Z,11.20
2023-04-28T08:41:50.772Z,11.30
2023-04-28T08:44:18.567Z,11.30
2023-04-28T08:46:49.145Z,11.30
2023-04-28T08:49:18.232Z,11.50
2023-04-28T08:52:09.708Z,11.50
2023-04-28T08:54:38.846Z,11.40
2023-04-28T08:57:09.320Z,11.50
2023-04-28T08:59:40.245Z,11.60
2023-04-28T09:02:08.800Z,11.80
2023-04-28T09:04:35.996Z,12.00
2023-04-28T09:07:03.081Z,12.10
2023-04-28T09:09:34.727Z,12.30
2023-04-28T09:12:05.094Z,12.40
2023-04-28T09:14:34.470Z,12.40
2023-04-28T09:17:02.832Z,12.50
2023-04-28T09:19:37.033Z,12.20
2023-04-28T09:22:14.483Z,12.10
2023-04-28T09:24:53.129Z,12.00
2023-04-28T09:27:29.249Z,12.00
2023-04-28T09:29:59.693Z,11.90
2023-04-28T09:32:28.145Z,12.00
2023-04-28T09:34:58.496Z,12.00
2023-04-28T09:37:31.167Z,11.90
2023-04-28T09:40:06.629Z,12.00
2023-04-28T09:42:40.683Z,12.10
2023-04-28T09:45:09.739Z,11.90
2023-04-28T09:47:39.235Z,12.10
2023-04-28T09:50:11.679Z,12.40
2023-04-28T09:52:38.748Z,12.40
2023-04-28T09:55:08.615Z,12.40
2023-04-28T09:57:36.284Z,12.70
2023-04-28T10:00:06.737Z,12.70
2023-04-28T10:05:12.949Z,13.00
2023-04-28T10:07:41.288Z,12.70
2023-04-28T10:10:08.917Z,12.50
2023-04-28T10:12:38.555Z,12.40
2023-04-28T10:15:07.161Z,13.00
2023-04-28T10:17:35.117Z,13.30
2023-04-28T10:20:03.493Z,13.20
2023-04-28T10:22:57.918Z,13.40
2023-04-28T10:25:31.271Z,13.70
2023-04-28T10:27:59.474Z,14.00
2023-04-28T10:30:29.632Z,14.10
2023-04-28T10:33:12.192Z,13.80
2023-04-28T10:35:44.363Z,13.90
2023-04-28T10:38:13.767Z,13.50
2023-04-28T10:41:01.086Z,13.90
2023-04-28T10:43:31.882Z,14.20
2023-04-28T10:46:02.240Z,14.10
2023-04-28T10:48:37.289Z,13.90
2023-04-28T10:51:04.209Z,13.60
2023-04-28T10:53:46.825Z,13.60
2023-04-28T10:56:27.400Z,13.40
2023-04-28T10:59:00.665Z,13.80
2023-04-28T11:01:29.794Z,13.70
2023-04-28T11:04:10.772Z,13.90
2023-04-28T11:06:47.908Z,14.00
2023-04-28T11:09:17.639Z,14.10
2023-04-28T11:12:06.710Z,14.30
2023-04-28T11:14:35.310Z,14.50
2023-04-28T11:17:03.174Z,14.80
2023-04-28T11:19:34.091Z,14.90
2023-04-28T11:22:03.437Z,14.90
2023-04-28T11:24:30.981Z,14.20
2023-04-28T11:26:59.004Z,14.40
2023-04-28T11:29:35.931Z,14.20
2023-04-28T11:32:04.255Z,14.20
2023-04-28T11:34:31.087Z,14.30
2023-04-28T11:36:57.766Z,14.50
2023-04-28T11:39:31.366Z,14.60
2023-04-28T11:42:02.750Z,14.60
2023-04-28T11:44:31.170Z,14.20
2023-04-28T11:47:01.081Z,13.90
2023-04-28T11:49:29.237Z,14.20
2023-04-28T11:52:06.956Z,14.30
2023-04-28T11:54:34.410Z,14.50
2023-04-28T11:57:04.220Z,14.40
2023-04-28T11:59:35.515Z,14.40
2023-04-28T12:02:06.945Z,14.60
2023-04-28T12:04:38.094Z,14.70
2023-04-28T12:07:10.879Z,14.70
2023-04-28T12:10:03.969Z,14.70
2023-04-28T12:15:05.573Z,14.50
2023-04-28T12:17:41.533Z,14.50
2023-04-28T12:20:09.396Z,14.60
2023-04-28T12:22:49.848Z,14.50
2023-04-28T12:25:20.140Z,14.30
2023-04-28T12:28:03.273Z,14.30
2023-04-28T12:30:35.217Z,14.20
2023-04-28T12:33:02.149Z,14.50
2023-04-28T12:35:29.752Z,14.60
2023-04-28T12:37:58.476Z,14.70
2023-04-28T12:40:26.122Z,14.80
2023-04-28T12:42:53.161Z,14.80
2023-04-28T12:45:19.833Z,14.70
2023-04-28T12:47:48.947Z,14.80
2023-04-28T12:50:15.796Z,15.00
2023-04-28T12:52:42.512Z,15.10
2023-04-28T12:55:09.746Z,15.20
2023-04-28T12:57:38.961Z,14.80
2023-04-28T13:00:07.625Z,14.90
2023-04-28T13:02:35.213Z,15.00
2023-04-28T13:05:03.095Z,14.90
2023-04-28T13:07:31.844Z,14.70
2023-04-28T13:09:58.987Z,14.70
2023-04-28T13:12:26.425Z,14.80
2023-04-28T13:14:53.264Z,14.60
2023-04-28T13:17:21.130Z,14.80
2023-04-28T13:19:48.066Z,14.60
2023-04-28T13:22:15.765Z,14.70
2023-04-28T13:24:43.113Z,14.80
2023-04-28T13:27:10.370Z,14.70
2023-04-28T13:29:37.476Z,14.70
2023-04-28T13:32:07.845Z,14.60
2023-04-28T13:34:34.718Z,14.30
2023-04-28T13:37:01.590Z,14.30
2023-04-28T13:39:28.705Z,14.40
2023-04-28T13:41:55.470Z,14.40
2023-04-28T13:44:22.691Z,14.40
2023-04-28T13:46:49.830Z,14.50
2023-04-28T13:49:17.109Z,14.40
2023-04-28T13:51:45.859Z,14.40
2023-04-28T13:54:12.791Z,14.50
2023-04-28T13:56:39.659Z,14.60
2023-04-28T13:59:07.248Z,14.60
2023-04-28T14:01:34.121Z,14.70
2023-04-28T14:04:01.340Z,14.70
2023-04-28T14:06:29.297Z,14.50
2023-04-28T14:08:56.103Z,14.40
2023-04-28T14:11:23.066Z,14.50
2023-04-28T14:13:49.848Z,14.40
2023-04-28T14:16:16.757Z,14.40
2023-04-28T14:18:43.646Z,14.40
2023-04-28T14:21:10.337Z,14.30
2023-04-28T14:23:38.059Z,14.20
2023-04-28T14:26:05.019Z,14.10
2023-04-28T14:28:31.822Z,14.10
2023-04-28T14:30:59.189Z,14.00
2023-04-28T14:33:26.018Z,13.90
2023-04-28T14:35:52.992Z,13.80
2023-04-28T14:38:19.850Z,13.80
2023-04-28T14:40:46.664Z,13.60
2023-04-28T14:43:15.741Z,13.70
2023-04-28T14:45:42.566Z,13.70
2023-04-28T14:48:10.703Z,13.80
2023-04-28T14:50:37.730Z,13.80
2023-04-28T14:53:07.686Z,13.80
2023-04-28T14:55:35.001Z,13.90
2023-04-28T14:58:03.349Z,13.80
2023-04-28T15:00:31.398Z,13.80
2023-04-28T15:02:58.539Z,13.80
2023-04-28T15:05:26.052Z,13.80
2023-04-28T15:07:52.827Z,13.80
2023-04-28T15:10:19.725Z,13.80
2023-04-28T15:12:48.649Z,13.80
2023-04-28T15:15:15.537Z,13.90
2023-04-28T15:17:42.308Z,13.80
2023-04-28T15:20:09.394Z,13.80
2023-04-28T15:22:37.751Z,13.80
2023-04-28T15:25:04.776Z,13.80
2023-04-28T15:27:32.130Z,13.80
2023-04-28T15:29:58.934Z,13.70
2023-04-28T15:32:26.555Z,13.80
2023-04-28T15:34:54.818Z,13.70
2023-04-28T15:37:44.564Z,13.70
2023-04-28T15:40:13.220Z,13.70
2023-04-28T15:42:42.332Z,13.60
2023-04-28T15:45:10.423Z,13.70
2023-04-28T15:47:38.865Z,13.70
2023-04-28T15:50:06.800Z,13.60
2023-04-28T15:52:33.656Z,13.60
2023-04-28T15:55:00.873Z,13.60
2023-04-28T15:57:29.595Z,13.50
2023-04-28T15:59:56.616Z,13.50
2023-04-28T16:02:23.575Z,13.50
2023-04-28T16:04:53.159Z,13.40
2023-04-28T16:07:20.412Z,13.40
2023-04-28T16:09:47.093Z,13.40
2023-04-28T16:12:13.954Z,13.40
2023-04-28T16:14:41.665Z,13.40
2023-04-28T16:17:08.465Z,13.40
2023-04-28T16:19:35.640Z,13.30
2023-04-28T16:22:02.354Z,13.30
2023-04-28T16:24:29.889Z,13.30
2023-04-28T16:26:57.987Z,13.20
2023-04-28T16:29:24.962Z,13.20
2023-04-28T16:31:52.314Z,13.10
2023-04-28T16:34:19.515Z,13.20
2023-04-28T16:36:46.598Z,13.10
2023-04-28T16:39:13.463Z,13.10
2023-04-28T16:41:40.181Z,13.00
2023-04-28T16:44:08.221Z,13.10
2023-04-28T16:46:35.013Z,13.00
2023-04-28T16:49:01.856Z,13.00
2023-04-28T16:51:28.731Z,13.00
2023-04-28T16:53:55.444Z,12.90
2023-04-28T16:56:22.228Z,12.90
2023-04-28T16:58:49.100Z,12.80
2023-04-28T17:01:15.870Z,12.80
2023-04-28T17:03:44.508Z,12.80
2023-04-28T17:06:11.620Z,12.70
2023-04-28T17:08:40.154Z,12.60
2023-04-28T17:11:07.080Z,12.60
2023-04-28T17:13:34.144Z,12.50
2023-04-28T17:16:01.349Z,12.50
2023-04-28T17:18:28.565Z,12.40
2023-04-28T17:20:56.272Z,12.30
2023-04-28T17:23:23.032Z,12.20
2023-04-28T17:25:49.889Z,12.20
2023-04-28T17:28:16.641Z,12.10
2023-04-28T17:30:47.180Z,12.00
2023-04-28T17:33:14.978Z,12.00
2023-04-28T17:35:41.940Z,11.90
2023-04-28T17:38:08.921Z,11.80
2023-04-28T17:40:35.728Z,11.70
2023-04-28T17:43:03.998Z,11.50
2023-04-28T17:45:33.282Z,11.50
2023-04-28T17:48:03.701Z,11.40
2023-04-28T17:50:30.642Z,11.30
2023-04-28T17:52:58.033Z,11.20
2023-04-28T17:55:24.858Z,11.00
2023-04-28T17:57:51.854Z,10.90
2023-04-28T18:00:18.822Z,10.80
2023-04-28T18:02:45.626Z,10.70
2023-04-28T18:05:12.582Z,10.60
2023-04-28T18:07:39.764Z,10.60
2023-04-28T18:10:06.693Z,10.50
2023-04-28T18:12:33.397Z,10.40
2023-04-28T18:15:01.336Z,10.40
2023-04-28T18:17:28.289Z,10.30
2023-04-28T18:19:56.807Z,10.30
2023-04-28T18:22:23.840Z,10.10
2023-04-28T18:24:50.780Z,10.00
2023-04-28T18:27:17.700Z,9.90
2023-04-28T18:29:45.011Z,9.80
2023-04-28T18:32:14.534Z,9.60
2023-04-28T18:34:42.028Z,9.50
2023-04-28T18:37:09.590Z,9.50
2023-04-28T18:39:36.626Z,9.50
2023-04-28T18:42:04.284Z,9.50
2023-04-28T18:44:31.293Z,9.40
2023-04-28T18:46:58.538Z,9.40
2023-04-28T18:49:25.747Z,9.50
2023-04-28T18:51:52.662Z,9.50
2023-04-28T18:54:19.783Z,9.50
2023-04-28T18:56:47.951Z,9.40
2023-04-28T18:59:14.793Z,9.30
2023-04-28T19:01:41.604Z,9.30
2023-04-28T19:04:08.561Z,9.20
2023-04-28T19:06:36.276Z,9.10
2023-04-28T19:09:03.104Z,9.20
2023-04-28T19:11:30.494Z,9.10
2023-04-28T19:13:57.980Z,9.00
2023-04-28T19:16:24.745Z,9.00
2023-04-28T19:18:53.990Z,9.00
2023-04-28T19:21:20.658Z,8.90
2023-04-28T19:23:48.347Z,8.90
2023-04-28T19:26:15.122Z,8.80
2023-04-28T19:28:42.917Z,8.70
2023-04-28T19:31:09.671Z,8.70
2023-04-28T19:33:36.435Z,8.60
2023-04-28T19:36:04.717Z,8.70
2023-04-28T19:38:31.612Z,8.60
2023-04-28T19:41:01.395Z,8.60
2023-04-28T19:43:28.256Z,8.50
2023-04-28T19:45:55.089Z,8.50
2023-04-28T19:48:21.910Z,8.40
2023-04-28T19:50:48.740Z,8.30
2023-04-28T19:53:15.504Z,8.30
2023-04-28T19:55:42.200Z,8.30
2023-04-28T19:58:10.545Z,8.20
2023-04-28T20:00:37.547Z,8.20
2023-04-28T20:03:04.533Z,8.10
2023-04-28T20:05:31.369Z,8.10
2023-04-28T20:07:58.426Z,8.10
2023-04-28T20:10:25.222Z,8.00
2023-04-28T20:12:54.292Z,8.00
2023-04-28T20:15:21.115Z,8.00
2023-04-28T20:17:47.980Z,8.00
2023-04-28T20:20:14.717Z,8.00
2023-04-28T20:22:41.479Z,8.10
2023-04-28T20:25:10.444Z,8.10
2023-04-28T20:27:37.586Z,8.10
2023-04-28T20:30:05.060Z,8.10
2023-04-28T20:32:32.068Z,8.10
2023-04-28T20:34:59.256Z,8.00
2023-04-28T20:37:26.371Z,8.00
2023-04-28T20:39:53.473Z,8.00
2023-04-28T20:42:20.306Z,7.90
2023-04-28T20:44:47.090Z,7.90
2023-04-28T20:47:14.034Z,7.80
2023-04-28T20:49:40.974Z,7.90
2023-04-28T20:52:31.561Z,7.70
2023-04-28T20:54:58.616Z,7.80
2023-04-28T20:57:25.337Z,7.60
2023-04-28T20:59:52.356Z,7.60
2023-04-28T21:02:19.412Z,7.60
2023-04-28T21:04:46.406Z,7.50
2023-04-28T21:07:14.720Z,7.50
2023-04-28T21:09:42.141Z,7.50
2023-04-28T21:12:09.593Z,7.50
2023-04-28T21:14:36.688Z,7.60
2023-04-28T21:17:03.911Z,7.70
2023-04-28T21:19:31.357Z,7.80
2023-04-28T21:21:58.561Z,7.70
2023-04-28T21:24:25.265Z,7.80
2023-04-28T21:26:52.206Z,7.90
2023-04-28T21:29:19.256Z,7.90
2023-04-28T21:31:47.398Z,7.90
2023-04-28T21:34:16.759Z,7.90
2023-04-28T21:36:43.480Z,7.90
2023-04-28T21:39:11.915Z,7.90
2023-04-28T21:41:38.964Z,7.90
2023-04-28T21:44:06.079Z,7.90
2023-04-28T21:46:32.864Z,7.90
2023-04-28T21:48:59.743Z,7.90
2023-04-28T21:51:27.589Z,7.90
2023-04-28T21:53:54.390Z,7.90
2023-04-28T21:56:22.325Z,7.80
2023-04-28T21:58:49.109Z,7.80
2023-04-28T22:01:17.950Z,7.80
2023-04-28T22:03:46.532Z,7.80
2023-04-28T22:06:13.678Z,7.80
2023-04-28T22:08:40.468Z,7.80
2023-04-28T22:11:08.211Z,7.80
2023-04-28T22:13:35.022Z,7.80
2023-04-28T22:16:02.048Z,7.70
2023-04-28T22:18:29.464Z,7.70
2023-04-28T22:20:56.900Z,7.70
2023-04-28T22:23:23.755Z,7.60
2023-04-28T22:25:50.595Z,7.60
2023-04-28T22:28:17.469Z,7.50
2023-04-28T22:30:49.122Z,7.50
2023-04-28T22:33:16.116Z,7.50
2023-04-28T22:35:42.921Z,7.40
2023-04-28T22:38:09.716Z,7.30
2023-04-28T22:40:36.438Z,7.30
2023-04-28T22:43:03.189Z,7.30
2023-04-28T22:45:30.172Z,7.30
2023-04-28T22:47:57.270Z,7.20
2023-04-28T22:50:24.182Z,7.20
2023-04-28T22:52:52.323Z,7.20
2023-04-28T22:55:19.686Z,7.30
2023-04-28T22:57:46.787Z,7.20
2023-04-28T23:00:16.164Z,7.10
2023-04-28T23:02:43.511Z,7.20
2023-04-28T23:05:10.790Z,7.10
2023-04-28T23:07:37.501Z,7.10
2023-04-28T23:10:05.207Z,7.10
2023-04-28T23:12:32.008Z,7.10
2023-04-28T23:14:58.738Z,7.10
2023-04-28T23:17:25.716Z,7.10
2023-04-28T23:19:52.912Z,7.10
2023-04-28T23:22:21.068Z,7.10
2023-04-28T23:24:48.095Z,7.20
2023-04-28T23:27:15.315Z,7.10
2023-04-28T23:29:42.177Z,7.10
2023-04-28T23:32:09.218Z,7.10
2023-04-28T23:34:39.032Z,7.10
2023-04-28T23:37:06.770Z,7.20
2023-04-28T23:39:33.958Z,7.10
2023-04-28T23:42:01.769Z,7.20
2023-04-28T23:44:28.777Z,7.20
2023-04-28T23:46:56.327Z,7.20
2023-04-28T23:49:23.790Z,7.30
2023-04-28T23:51:50.635Z,7.20
2023-04-28T23:54:17.410Z,7.20
2023-04-28T23:56:44.290Z,7.20
2023-04-28T23:59:11.005Z,7.20
